Time;durP1;ratioP1;P1;durP2;ratioP2;P2;SDS_P1;SDS_P2;PMS_P1;PMS_P2;Temp;Humidity;BMP_temperature;BMP_pressure;BME280_temperature;BME280_humidity;BME280_pressure;Samples;Min_cycle;Max_cycle;Signal;HPM_P1;HPM_P2
2022/09/13 00:00:37;;;;;;;6.10;3.93;;;;;;;;;;4986509;28;20297;-56
2022/09/13 00:03:04;;;;;;;5.00;3.87;;;;;;;;;;4984493;28;20718;-53
2022/09/13 00:05:30;;;;;;;5.93;4.23;;;;;;;;;;4987417;28;20702;-53
2022/09/13 00:07:57;;;;;;;6.03;3.97;;;;;;;;;;4987747;28;20256;-54
2022/09/13 00:10:23;;;;;;;7.40;4.00;;;;;;;;;;4987981;28;20211;-56
2022/09/13 00:12:50;;;;;;;5.37;4.00;;;;;;;;;;4984104;28;20211;-54
2022/09/13 00:15:17;;;;;;;6.20;3.97;;;;;;;;;;4990280;28;20239;-55
2022/09/13 00:17:43;;;;;;;6.63;4.20;;;;;;;;;;4983035;28;20732;-57
2022/09/13 00:20:10;;;;;;;4.70;4.03;;;;;;;;;;4978941;28;20295;-56
2022/09/13 00:22:36;;;;;;;4.63;3.97;;;;;;;;;;4988113;28;21178;-55
2022/09/13 00:25:03;;;;;;;7.93;4.23;;;;;;;;;;4986363;28;20221;-55
2022/09/13 00:27:32;;;;;;;5.53;4.00;;;;;;;;;;4992928;28;20257;-55
2022/09/13 00:29:58;;;;;;;5.93;4.10;;;;;;;;;;4988768;28;20284;-53
2022/09/13 00:32:25;;;;;;;5.70;4.00;;;;;;;;;;4989585;28;20484;-54
2022/09/13 00:34:51;;;;;;;5.07;3.83;;;;;;;;;;4966682;28;20280;-55
2022/09/13 00:37:18;;;;;;;4.50;3.90;;;;;;;;;;4971379;28;20303;-54
2022/09/13 00:39:44;;;;;;;4.27;3.57;;;;;;;;;;4982567;28;20207;-55
2022/09/13 00:42:15;;;;;;;5.60;4.07;;;;;;;;;;4989450;28;20205;-56
2022/09/13 00:45:06;;;;;;;5.17;4.10;;;;;;;;;;4987250;28;20303;-55
2022/09/13 00:47:39;;;;;;;7.23;4.23;;;;;;;;;;4982987;28;20372;-57
2022/09/13 00:50:33;;;;;;;5.47;3.93;;;;;;;;;;4985578;28;20299;-55
2022/09/13 00:53:05;;;;;;;4.50;4.00;;;;;;;;;;4985545;28;20198;-54
2022/09/13 00:55:37;;;;;;;6.43;3.70;;;;;;;;;;4982739;28;20232;-57
2022/09/13 00:58:16;;;;;;;5.17;4.00;;;;;;;;;;4969669;28;20307;-56
2022/09/13 01:00:43;;;;;;;5.10;4.00;;;;;;;;;;4967378;28;20391;-55
2022/09/13 01:03:11;;;;;;;4.53;4.00;;;;;;;;;;4952857;28;20220;-55
2022/09/13 01:05:41;;;;;;;4.93;3.77;;;;;;;;;;4968965;28;20276;-55
2022/09/13 01:08:13;;;;;;;4.23;3.70;;;;;;;;;;4971723;28;20251;-55
2022/09/13 01:10:41;;;;;;;4.33;3.60;;;;;;;;;;4969901;28;20292;-55
2022/09/13 01:13:13;;;;;;;4.97;3.93;;;;;;;;;;4983403;28;20288;-55
2022/09/13 01:15:40;;;;;;;6.20;4.13;;;;;;;;;;4969241;28;20264;-54
2022/09/13 01:18:08;;;;;;;6.03;3.90;;;;;;;;;;4986985;28;20317;-53
2022/09/13 01:21:11;;;;;;;6.50;4.40;;;;;;;;;;4967957;28;20651;-56
2022/09/13 01:24:12;;;;;;;9.13;4.20;;;;;;;;;;4977832;28;20311;-53
2022/09/13 01:27:19;;;;;;;4.87;4.13;;;;;;;;;;4983679;28;20263;-55
2022/09/13 01:30:12;;;;;;;6.07;4.20;;;;;;;;;;4914731;29;20285;-56
2022/09/13 01:32:50;;;;;;;5.20;4.30;;;;;;;;;;4928000;29;20291;-55
2022/09/13 01:35:34;;;;;;;7.23;4.50;;;;;;;;;;4965685;28;20283;-57
2022/09/13 01:38:17;;;;;;;6.73;4.40;;;;;;;;;;4984510;28;20304;-54
2022/09/13 01:40:50;;;;;;;4.77;3.83;;;;;;;;;;4964317;28;20677;-57
2022/09/13 01:43:51;;;;;;;8.50;4.40;;;;;;;;;;4983595;28;20316;-57
2022/09/13 01:46:23;;;;;;;4.90;4.20;;;;;;;;;;4965538;28;20331;-56
2022/09/13 01:48:54;;;;;;;6.40;4.27;;;;;;;;;;4986434;28;20205;-56
2022/09/13 01:51:48;;;;;;;5.83;3.80;;;;;;;;;;4960297;28;20261;-53
2022/09/13 01:54:53;;;;;;;6.23;4.87;;;;;;;;;;4967595;28;20219;-56
2022/09/13 01:57:33;;;;;;;6.67;4.57;;;;;;;;;;4962226;28;20300;-54
2022/09/13 02:00:05;;;;;;;6.00;4.60;;;;;;;;;;4967986;28;20292;-56
2022/09/13 02:02:36;;;;;;;6.13;4.50;;;;;;;;;;4985718;28;20284;-56
2022/09/13 02:05:08;;;;;;;5.40;4.80;;;;;;;;;;4969746;28;20221;-54
2022/09/13 02:07:41;;;;;;;5.20;4.07;;;;;;;;;;4971416;28;20279;-55
2022/09/13 02:10:21;;;;;;;5.77;4.60;;;;;;;;;;4986586;28;20280;-55
2022/09/13 02:12:48;;;;;;;7.57;4.77;;;;;;;;;;4970006;28;20510;-56
2022/09/13 02:15:17;;;;;;;7.50;4.50;;;;;;;;;;4984130;28;20189;-56
2022/09/13 02:17:55;;;;;;;7.67;4.50;;;;;;;;;;4986874;28;20596;-52
2022/09/13 02:20:28;;;;;;;6.40;4.23;;;;;;;;;;4982875;28;20247;-52
2022/09/13 02:22:57;;;;;;;7.40;4.80;;;;;;;;;;4953773;28;20197;-50
2022/09/13 02:25:24;;;;;;;7.17;4.73;;;;;;;;;;4966451;28;20300;-56
2022/09/13 02:27:54;;;;;;;6.23;4.43;;;;;;;;;;4967124;28;20303;-53
2022/09/13 02:30:21;;;;;;;9.60;5.10;;;;;;;;;;4988131;28;20288;-55
2022/09/13 02:33:02;;;;;;;6.13;4.40;;;;;;;;;;4965137;28;20292;-54
2022/09/13 02:35:35;;;;;;;7.37;5.00;;;;;;;;;;4979938;28;20280;-52
2022/09/13 02:38:05;;;;;;;5.90;4.90;;;;;;;;;;4970931;28;20304;-52
2022/09/13 02:40:36;;;;;;;6.03;4.80;;;;;;;;;;4964144;28;20207;-52
2022/09/13 02:43:07;;;;;;;6.70;4.53;;;;;;;;;;4970597;28;20284;-54
2022/09/13 02:45:46;;;;;;;9.00;4.47;;;;;;;;;;4966219;28;20303;-53
2022/09/13 02:48:40;;;;;;;6.50;4.40;;;;;;;;;;4983248;28;20244;-53
2022/09/13 02:51:16;;;;;;;6.03;4.40;;;;;;;;;;4983924;28;20279;-52
2022/09/13 02:53:51;;;;;;;8.20;4.90;;;;;;;;;;4963513;28;20215;-55
2022/09/13 02:56:29;;;;;;;6.97;5.30;;;;;;;;;;4982238;28;20342;-52
2022/09/13 02:59:08;;;;;;;7.90;4.87;;;;;;;;;;4967251;28;20336;-51
2022/09/13 03:01:36;;;;;;;7.80;4.90;;;;;;;;;;4967464;28;20678;-51
2022/09/13 03:04:02;;;;;;;6.50;4.63;;;;;;;;;;4981859;28;20296;-51
2022/09/13 03:06:29;;;;;;;9.33;4.77;;;;;;;;;;4970618;28;20259;-54
2022/09/13 03:08:59;;;;;;;7.20;5.03;;;;;;;;;;4981284;28;20291;-52
2022/09/13 03:11:38;;;;;;;6.70;5.00;;;;;;;;;;4975626;28;20229;-52
2022/09/13 03:14:36;;;;;;;6.07;4.70;;;;;;;;;;4962806;28;20307;-52
2022/09/13 03:17:14;;;;;;;7.47;4.67;;;;;;;;;;4944249;28;20304;-51
2022/09/13 03:19:59;;;;;;;8.60;4.90;;;;;;;;;;4972746;28;20284;-52
2022/09/13 03:22:35;;;;;;;6.67;4.80;;;;;;;;;;4986633;28;20357;-51
2022/09/13 03:25:18;;;;;;;6.60;4.53;;;;;;;;;;4964978;28;20299;-52
2022/09/13 03:28:02;;;;;;;5.73;4.27;;;;;;;;;;4972875;28;20303;-51
2022/09/13 03:30:29;;;;;;;6.47;4.50;;;;;;;;;;4987570;28;20299;-52
2022/09/13 03:32:59;;;;;;;6.00;4.57;;;;;;;;;;4965811;28;20292;-52
2022/09/13 03:35:36;;;;;;;8.30;4.03;;;;;;;;;;4984019;28;20288;-52
2022/09/13 03:38:07;;;;;;;7.33;4.37;;;;;;;;;;4963167;28;20772;-51
2022/09/13 03:40:50;;;;;;;4.80;4.17;;;;;;;;;;4970647;28;20299;-52
2022/09/13 03:43:34;;;;;;;6.03;4.87;;;;;;;;;;4989664;28;20650;-52
2022/09/13 03:46:22;;;;;;;6.07;3.93;;;;;;;;;;4969372;28;20216;-53
2022/09/13 03:48:50;;;;;;;6.57;4.10;;;;;;;;;;4986031;28;20672;-55
2022/09/13 03:51:17;;;;;;;6.07;4.50;;;;;;;;;;4982419;28;20847;-51
2022/09/13 03:53:51;;;;;;;4.97;4.10;;;;;;;;;;4989965;28;20304;-54
2022/09/13 03:56:19;;;;;;;6.67;4.63;;;;;;;;;;4959035;28;20304;-55
2022/09/13 03:58:46;;;;;;;5.30;4.27;;;;;;;;;;4989702;28;20740;-54
2022/09/13 04:01:16;;;;;;;5.87;4.47;;;;;;;;;;4987144;28;20288;-51
2022/09/13 04:03:42;;;;;;;6.33;4.10;;;;;;;;;;4968602;28;20204;-51
2022/09/13 04:06:09;;;;;;;6.57;4.53;;;;;;;;;;4989895;28;20228;-51
2022/09/13 04:08:35;;;;;;;8.83;4.17;;;;;;;;;;4985451;28;20201;-55
2022/09/13 04:11:01;;;;;;;6.87;4.27;;;;;;;;;;4985244;28;20609;-51
2022/09/13 04:13:28;;;;;;;6.53;4.03;;;;;;;;;;4989977;28;20288;-50
2022/09/13 04:15:54;;;;;;;7.03;4.27;;;;;;;;;;4987589;28;20289;-54
2022/09/13 04:18:20;;;;;;;6.00;4.30;;;;;;;;;;4989778;28;20629;-52
2022/09/13 04:20:54;;;;;;;7.77;4.33;;;;;;;;;;4989242;28;20299;-53
2022/09/13 04:23:21;;;;;;;6.30;4.40;;;;;;;;;;4972158;28;20299;-54
2022/09/13 04:25:47;;;;;;;6.30;4.27;;;;;;;;;;4963950;28;20776;-51
2022/09/13 04:28:15;;;;;;;5.73;4.20;;;;;;;;;;4986217;28;20307;-49
2022/09/13 04:30:46;;;;;;;5.33;4.37;;;;;;;;;;4986846;28;20320;-51
2022/09/13 04:33:12;;;;;;;6.90;4.30;;;;;;;;;;4986689;28;20196;-51
2022/09/13 04:35:39;;;;;;;7.27;4.60;;;;;;;;;;4989253;28;20276;-51
2022/09/13 04:38:06;;;;;;;5.50;4.67;;;;;;;;;;4987804;28;20318;-53
2022/09/13 04:40:33;;;;;;;8.27;4.50;;;;;;;;;;4989360;28;20292;-51
2022/09/13 04:43:00;;;;;;;7.10;4.50;;;;;;;;;;4984844;28;20279;-51
2022/09/13 04:45:27;;;;;;;6.17;4.53;;;;;;;;;;4989335;28;20252;-56
2022/09/13 04:47:55;;;;;;;5.87;4.80;;;;;;;;;;4984795;28;20216;-51
2022/09/13 04:50:23;;;;;;;5.60;4.33;;;;;;;;;;4987987;28;20683;-52
2022/09/13 04:52:50;;;;;;;6.93;4.30;;;;;;;;;;4988114;28;20649;-55
2022/09/13 04:55:17;;;;;;;6.77;4.33;;;;;;;;;;4984711;28;20692;-53
2022/09/13 04:57:43;;;;;;;5.53;4.30;;;;;;;;;;4983734;28;20316;-50
2022/09/13 05:00:10;;;;;;;7.03;4.47;;;;;;;;;;4989414;28;20665;-52
2022/09/13 05:02:36;;;;;;;5.87;4.63;;;;;;;;;;4986635;28;20285;-51
2022/09/13 05:05:03;;;;;;;9.40;4.73;;;;;;;;;;4985613;28;20220;-53
2022/09/13 05:07:30;;;;;;;6.63;4.50;;;;;;;;;;4985302;28;20235;-55
2022/09/13 05:09:56;;;;;;;7.07;4.50;;;;;;;;;;4986709;28;20304;-55
2022/09/13 05:12:22;;;;;;;5.90;4.37;;;;;;;;;;4987653;28;20211;-52
2022/09/13 05:14:49;;;;;;;7.07;4.77;;;;;;;;;;4987071;28;20283;-51
2022/09/13 05:17:15;;;;;;;5.73;4.43;;;;;;;;;;4983870;28;20673;-52
2022/09/13 05:19:41;;;;;;;6.43;4.40;;;;;;;;;;4986659;28;20304;-56
2022/09/13 05:22:07;;;;;;;5.77;4.20;;;;;;;;;;4986347;28;20209;-57
2022/09/13 05:24:34;;;;;;;6.80;4.20;;;;;;;;;;4982891;28;20492;-55
2022/09/13 05:27:00;;;;;;;6.37;4.40;;;;;;;;;;4980977;28;20368;-56
2022/09/13 05:29:26;;;;;;;5.60;3.97;;;;;;;;;;4982569;28;20201;-59
2022/09/13 05:31:53;;;;;;;7.60;4.53;;;;;;;;;;4987398;28;20623;-59
2022/09/13 05:34:19;;;;;;;6.33;4.27;;;;;;;;;;4982319;28;20646;-58
2022/09/13 05:36:46;;;;;;;5.60;4.20;;;;;;;;;;4980058;28;20227;-56
2022/09/13 05:39:21;;;;;;;6.93;3.70;;;;;;;;;;4986329;28;20801;-54
2022/09/13 05:42:07;;;;;;;5.90;4.30;;;;;;;;;;4970644;28;20204;-51
2022/09/13 05:44:33;;;;;;;6.70;4.20;;;;;;;;;;4980409;28;20228;-54
2022/09/13 05:46:59;;;;;;;5.23;3.70;;;;;;;;;;4984093;28;20665;-54
2022/09/13 05:49:26;;;;;;;6.57;4.60;;;;;;;;;;4988404;28;20288;-54
2022/09/13 05:51:52;;;;;;;3.87;3.47;;;;;;;;;;4987664;28;20683;-54
2022/09/13 05:54:18;;;;;;;5.73;3.73;;;;;;;;;;4971521;28;20283;-53
2022/09/13 05:56:45;;;;;;;5.70;3.80;;;;;;;;;;4984336;28;20308;-56
2022/09/13 05:59:13;;;;;;;5.73;3.83;;;;;;;;;;4988810;28;20197;-57
2022/09/13 06:01:39;;;;;;;8.40;3.90;;;;;;;;;;4989732;28;20288;-55
2022/09/13 06:04:06;;;;;;;5.33;4.27;;;;;;;;;;4955952;28;20716;-53
2022/09/13 06:06:34;;;;;;;5.63;3.93;;;;;;;;;;4986386;28;20303;-55
2022/09/13 06:09:00;;;;;;;4.87;4.00;;;;;;;;;;4980124;28;20281;-55
2022/09/13 06:11:26;;;;;;;5.40;3.60;;;;;;;;;;4973465;28;20197;-62
2022/09/13 06:13:53;;;;;;;5.03;3.90;;;;;;;;;;4984127;28;20718;-57
2022/09/13 06:16:19;;;;;;;5.07;3.97;;;;;;;;;;4980107;28;20654;-58
2022/09/13 06:18:47;;;;;;;8.83;4.00;;;;;;;;;;4980960;28;20209;-52
2022/09/13 06:21:19;;;;;;;6.17;3.93;;;;;;;;;;4985928;28;20664;-56
2022/09/13 06:23:50;;;;;;;5.30;3.80;;;;;;;;;;4984250;28;20284;-57
2022/09/13 06:26:19;;;;;;;4.63;3.87;;;;;;;;;;4980868;28;20316;-52
2022/09/13 06:28:50;;;;;;;4.93;3.17;;;;;;;;;;4966138;28;20284;-55
2022/09/13 06:31:18;;;;;;;6.30;4.03;;;;;;;;;;4982286;28;20699;-56
2022/09/13 06:33:44;;;;;;;6.57;4.03;;;;;;;;;;4950031;28;20201;-58
2022/09/13 06:36:13;;;;;;;5.28;3.90;;;;;;;;;;4985029;28;20240;-52
2022/09/13 06:38:40;;;;;;;8.30;4.50;;;;;;;;;;4983397;28;20197;-51
2022/09/13 06:41:09;;;;;;;7.57;4.20;;;;;;;;;;4987534;28;20201;-53
2022/09/13 06:43:36;;;;;;;11.20;4.87;;;;;;;;;;4985736;28;20299;-52
2022/09/13 06:46:14;;;;;;;4.40;3.90;;;;;;;;;;4986589;28;20679;-51
2022/09/13 06:48:42;;;;;;;5.43;3.70;;;;;;;;;;4982346;28;20695;-50
2022/09/13 06:51:10;;;;;;;7.07;4.47;;;;;;;;;;4986912;28;20207;-51
2022/09/13 06:53:37;;;;;;;5.57;3.77;;;;;;;;;;4979376;28;20288;-56
2022/09/13 06:56:05;;;;;;;7.55;4.03;;;;;;;;;;4984495;28;20622;-55
2022/09/13 06:58:32;;;;;;;7.32;4.13;;;;;;;;;;4980735;28;20304;-54
2022/09/13 07:01:14;;;;;;;6.07;4.00;;;;;;;;;;4980084;28;20284;-55
2022/09/13 07:03:43;;;;;;;6.32;4.22;;;;;;;;;;4980538;28;20673;-57
2022/09/13 07:06:30;;;;;;;5.57;3.90;;;;;;;;;;4981156;28;20696;-55
2022/09/13 07:08:58;;;;;;;6.30;4.33;;;;;;;;;;4984745;28;20638;-55
2022/09/13 07:11:28;;;;;;;6.53;4.00;;;;;;;;;;4970252;28;20252;-50
2022/09/13 07:13:56;;;;;;;4.78;3.78;;;;;;;;;;4992629;28;20293;-55
2022/09/13 07:16:25;;;;;;;6.47;4.65;;;;;;;;;;4981332;28;20656;-56
2022/09/13 07:18:57;;;;;;;7.80;4.20;;;;;;;;;;4981923;28;20229;-59
2022/09/13 07:21:24;;;;;;;8.27;4.67;;;;;;;;;;4984760;28;20287;-58
2022/09/13 07:23:52;;;;;;;7.23;4.20;;;;;;;;;;4983868;28;20212;-57
2022/09/13 07:26:19;;;;;;;6.93;4.60;;;;;;;;;;4981358;28;20569;-56
2022/09/13 07:28:47;;;;;;;4.80;4.30;;;;;;;;;;4982555;28;20287;-60
2022/09/13 07:31:17;;;;;;;5.50;4.60;;;;;;;;;;4980579;28;20197;-59
2022/09/13 07:33:44;;;;;;;6.73;4.03;;;;;;;;;;4983857;28;20236;-59
2022/09/13 07:36:11;;;;;;;8.98;4.50;;;;;;;;;;4984428;28;20599;-59
2022/09/13 07:38:41;;;;;;;5.70;4.35;;;;;;;;;;4986682;28;20250;-57
2022/09/13 07:41:13;;;;;;;7.72;4.90;;;;;;;;;;4980309;28;20205;-59
2022/09/13 07:43:40;;;;;;;4.13;3.70;;;;;;;;;;4980469;28;20296;-59
2022/09/13 07:46:09;;;;;;;5.35;3.67;;;;;;;;;;4979483;28;20217;-60
2022/09/13 07:48:38;;;;;;;4.60;3.55;;;;;;;;;;4982001;28;20201;-59
2022/09/13 07:51:06;;;;;;;3.90;3.10;;;;;;;;;;4987430;28;20655;-61
2022/09/13 07:53:34;;;;;;;4.38;3.42;;;;;;;;;;4975076;28;20233;-61
2022/09/13 07:56:01;;;;;;;4.72;3.40;;;;;;;;;;4977629;28;20657;-58
2022/09/13 07:58:28;;;;;;;6.75;3.65;;;;;;;;;;4985198;28;20623;-60
2022/09/13 08:01:00;;;;;;;3.60;3.03;;;;;;;;;;4980714;28;20224;-60
2022/09/13 08:03:26;;;;;;;6.32;3.92;;;;;;;;;;4967928;28;20212;-59
2022/09/13 08:05:52;;;;;;;3.78;3.22;;;;;;;;;;4985668;28;20223;-57
2022/09/13 08:08:19;;;;;;;5.03;3.15;;;;;;;;;;4986916;28;20275;-60
2022/09/13 08:10:45;;;;;;;4.03;3.63;;;;;;;;;;4986688;28;20314;-61
2022/09/13 08:13:15;;;;;;;4.53;3.25;;;;;;;;;;4980347;28;20193;-59
2022/09/13 08:15:42;;;;;;;5.50;3.45;;;;;;;;;;4983794;28;20212;-61
2022/09/13 08:18:09;;;;;;;4.32;3.50;;;;;;;;;;4985864;28;20232;-60
2022/09/13 08:20:37;;;;;;;3.72;3.30;;;;;;;;;;4985782;28;20201;-58
2022/09/13 08:23:04;;;;;;;3.58;3.28;;;;;;;;;;4985405;28;20201;-61
2022/09/13 08:25:33;;;;;;;5.05;3.60;;;;;;;;;;4981480;28;20320;-61
2022/09/13 08:28:14;;;;;;;4.43;3.53;;;;;;;;;;4985200;28;20303;-60
2022/09/13 08:30:42;;;;;;;5.45;3.97;;;;;;;;;;4987767;28;20292;-61
2022/09/13 08:33:10;;;;;;;4.03;3.30;;;;;;;;;;4964596;28;20220;-58
2022/09/13 08:35:37;;;;;;;5.35;3.40;;;;;;;;;;4987797;28;20610;-60
2022/09/13 08:38:04;;;;;;;6.95;3.60;;;;;;;;;;4982027;28;20244;-60
2022/09/13 08:40:39;;;;;;;4.50;3.53;;;;;;;;;;4986796;28;20739;-57
2022/09/13 08:43:29;;;;;;;4.00;3.53;;;;;;;;;;4968040;28;20291;-58
2022/09/13 08:46:05;;;;;;;5.95;3.42;;;;;;;;;;4942545;28;20323;-60
2022/09/13 08:48:39;;;;;;;6.25;4.03;;;;;;;;;;4989150;28;20557;-58
2022/09/13 08:51:15;;;;;;;4.00;3.55;;;;;;;;;;4981916;28;20366;-61
2022/09/13 08:53:47;;;;;;;5.05;4.10;;;;;;;;;;4965980;28;20331;-56
2022/09/13 08:56:30;;;;;;;7.95;3.65;;;;;;;;;;4987664;28;21145;-55
2022/09/13 08:59:25;;;;;;;4.63;3.78;;;;;;;;;;4978022;28;20279;-58
2022/09/13 09:02:16;;;;;;;6.20;3.40;;;;;;;;;;4968660;28;20287;-56
2022/09/13 09:04:49;;;;;;;4.85;3.10;;;;;;;;;;4983922;28;20205;-56
2022/09/13 09:07:18;;;;;;;5.82;3.40;;;;;;;;;;4986195;28;20311;-58
2022/09/13 09:09:50;;;;;;;5.20;3.42;;;;;;;;;;4958639;28;20716;-56
2022/09/13 09:12:19;;;;;;;5.72;3.90;;;;;;;;;;4987060;28;20255;-58
2022/09/13 09:14:56;;;;;;;4.80;3.75;;;;;;;;;;4984192;28;20287;-58
2022/09/13 09:17:27;;;;;;;4.65;3.75;;;;;;;;;;4984254;28;20806;-59
2022/09/13 09:20:02;;;;;;;5.55;4.07;;;;;;;;;;4966367;28;20287;-61
2022/09/13 09:22:32;;;;;;;5.53;4.05;;;;;;;;;;4988274;28;20283;-58
2022/09/13 09:24:59;;;;;;;5.97;4.45;;;;;;;;;;4972231;28;20200;-60
2022/09/13 09:27:26;;;;;;;5.13;3.85;;;;;;;;;;4985150;28;20494;-59
2022/09/13 09:29:54;;;;;;;5.53;3.90;;;;;;;;;;4981855;28;20288;-60
2022/09/13 09:32:23;;;;;;;7.15;4.13;;;;;;;;;;4966620;28;20240;-55
2022/09/13 09:35:02;;;;;;;5.47;4.07;;;;;;;;;;4988720;28;20288;-58
2022/09/13 09:37:29;;;;;;;5.75;3.70;;;;;;;;;;4984060;28;20244;-59
2022/09/13 09:40:06;;;;;;;5.55;3.70;;;;;;;;;;4986321;28;20216;-57
2022/09/13 09:42:44;;;;;;;5.63;4.55;;;;;;;;;;4964430;28;20675;-58
2022/09/13 09:45:27;;;;;;;5.20;4.20;;;;;;;;;;4981119;28;20228;-58
2022/09/13 09:47:54;;;;;;;6.63;4.35;;;;;;;;;;4986445;28;20220;-53
2022/09/13 09:50:31;;;;;;;7.20;4.82;;;;;;;;;;4989851;28;20225;-58
2022/09/13 09:53:05;;;;;;;6.93;4.55;;;;;;;;;;4975559;28;20196;-55
2022/09/13 09:55:38;;;;;;;11.13;4.45;;;;;;;;;;4966775;28;20218;-55
2022/09/13 09:58:07;;;;;;;6.05;3.92;;;;;;;;;;4985758;28;20307;-59
2022/09/13 10:00:36;;;;;;;5.75;4.38;;;;;;;;;;4986084;28;20233;-55
2022/09/13 10:03:06;;;;;;;7.00;4.30;;;;;;;;;;4969064;28;20288;-58
2022/09/13 10:05:33;;;;;;;6.80;4.57;;;;;;;;;;4968661;28;20709;-58
2022/09/13 10:08:01;;;;;;;5.35;4.35;;;;;;;;;;4971996;28;20315;-58
2022/09/13 10:10:41;;;;;;;7.88;4.07;;;;;;;;;;4987387;28;20197;-58
2022/09/13 10:13:19;;;;;;;5.25;4.03;;;;;;;;;;4968324;28;20284;-59
2022/09/13 10:15:57;;;;;;;5.45;4.07;;;;;;;;;;4978560;28;20295;-57
2022/09/13 10:18:25;;;;;;;4.70;3.85;;;;;;;;;;4983674;28;20204;-59
2022/09/13 10:21:18;;;;;;;5.82;4.30;;;;;;;;;;4985882;28;20324;-59
2022/09/13 10:23:46;;;;;;;5.80;4.05;;;;;;;;;;4989040;28;20243;-59
2022/09/13 10:26:18;;;;;;;6.07;4.63;;;;;;;;;;4967914;28;20224;-59
2022/09/13 10:28:55;;;;;;;6.63;4.43;;;;;;;;;;4966061;28;20197;-57
2022/09/13 10:31:28;;;;;;;5.82;4.10;;;;;;;;;;4972750;28;20287;-56
2022/09/13 10:34:01;;;;;;;5.68;4.47;;;;;;;;;;4988921;28;20284;-58
2022/09/13 10:36:30;;;;;;;5.53;4.00;;;;;;;;;;4972111;28;20252;-59
2022/09/13 10:39:20;;;;;;;7.05;4.03;;;;;;;;;;4989769;28;20294;-57
2022/09/13 10:41:53;;;;;;;6.93;3.70;;;;;;;;;;4970908;28;20288;-57
2022/09/13 10:44:40;;;;;;;7.38;4.65;;;;;;;;;;4972271;28;20289;-58
2022/09/13 10:47:12;;;;;;;6.18;4.57;;;;;;;;;;4974499;28;20312;-58
2022/09/13 10:49:47;;;;;;;6.20;4.95;;;;;;;;;;4971110;28;20288;-59
2022/09/13 10:52:35;;;;;;;5.80;4.38;;;;;;;;;;4988370;28;20553;-58
2022/09/13 10:55:17;;;;;;;5.90;4.40;;;;;;;;;;4981418;28;20299;-58
2022/09/13 10:57:51;;;;;;;7.18;4.53;;;;;;;;;;4986531;28;20788;-55
2022/09/13 11:00:29;;;;;;;6.55;5.30;;;;;;;;;;4985925;28;20617;-58
2022/09/13 11:03:10;;;;;;;6.93;5.40;;;;;;;;;;4991750;28;20273;-57
2022/09/13 11:05:51;;;;;;;5.18;4.20;;;;;;;;;;4973622;28;20291;-57
2022/09/13 11:08:26;;;;;;;6.05;3.97;;;;;;;;;;4984217;28;20308;-58
2022/09/13 11:11:02;;;;;;;6.18;4.25;;;;;;;;;;4984780;28;20201;-59
2022/09/13 11:13:40;;;;;;;5.43;3.88;;;;;;;;;;4985826;28;20215;-56
2022/09/13 11:16:22;;;;;;;5.90;4.00;;;;;;;;;;4984423;28;20556;-54
2022/09/13 11:19:14;;;;;;;4.30;3.78;;;;;;;;;;4987646;28;20208;-60
2022/09/13 11:22:05;;;;;;;7.35;4.32;;;;;;;;;;4970589;28;20297;-58
2022/09/13 11:24:38;;;;;;;4.78;3.85;;;;;;;;;;4983832;28;20342;-60
2022/09/13 11:27:24;;;;;;;3.65;3.20;;;;;;;;;;4979562;28;20304;-60
2022/09/13 11:30:14;;;;;;;6.75;4.30;;;;;;;;;;4957826;28;20284;-58
2022/09/13 11:32:59;;;;;;;4.97;4.22;;;;;;;;;;4971307;28;20292;-59
2022/09/13 11:35:35;;;;;;;5.85;4.20;;;;;;;;;;4985645;28;20292;-53
2022/09/13 11:38:33;;;;;;;7.00;5.22;;;;;;;;;;4965747;28;20312;-56
2022/09/13 11:41:08;;;;;;;4.90;4.10;;;;;;;;;;4967308;28;20284;-56
2022/09/13 11:43:43;;;;;;;5.25;4.05;;;;;;;;;;4975463;28;20637;-58
2022/09/13 11:46:24;;;;;;;4.70;4.18;;;;;;;;;;4971378;28;20328;-58
2022/09/13 11:49:08;;;;;;;4.93;4.03;;;;;;;;;;4986450;28;20557;-57
2022/09/13 11:51:35;;;;;;;7.97;3.92;;;;;;;;;;4968765;28;20251;-58
2022/09/13 11:54:17;;;;;;;4.88;3.95;;;;;;;;;;4979348;28;20207;-57
2022/09/13 11:56:47;;;;;;;5.00;4.25;;;;;;;;;;4975053;28;20299;-56
2022/09/13 11:59:17;;;;;;;5.10;3.90;;;;;;;;;;4963825;28;20288;-56
2022/09/13 12:01:48;;;;;;;5.63;4.00;;;;;;;;;;4991073;28;20760;-58
2022/09/13 12:04:21;;;;;;;5.05;3.65;;;;;;;;;;4993172;28;20196;-60
2022/09/13 12:06:58;;;;;;;3.83;3.30;;;;;;;;;;4975559;28;20224;-59
2022/09/13 12:09:28;;;;;;;3.88;3.47;;;;;;;;;;4975680;28;20642;-59
2022/09/13 12:12:03;;;;;;;4.13;3.42;;;;;;;;;;4960578;28;20197;-56
2022/09/13 12:14:49;;;;;;;4.25;3.38;;;;;;;;;;4992667;28;20242;-58
2022/09/13 12:17:26;;;;;;;4.63;3.88;;;;;;;;;;4965033;28;20217;-57
2022/09/13 12:19:54;;;;;;;4.88;3.65;;;;;;;;;;4974203;28;20275;-58
2022/09/13 12:22:23;;;;;;;4.28;3.50;;;;;;;;;;4962306;28;20323;-60
2022/09/13 12:24:58;;;;;;;4.57;3.60;;;;;;;;;;4969056;28;20572;-58
2022/09/13 12:27:38;;;;;;;4.35;3.70;;;;;;;;;;4969010;28;20317;-58
2022/09/13 12:30:15;;;;;;;3.50;3.13;;;;;;;;;;4969291;28;20192;-58
2022/09/13 12:32:44;;;;;;;4.80;3.70;;;;;;;;;;4992642;28;20287;-60
2022/09/13 12:35:29;;;;;;;3.63;3.30;;;;;;;;;;4965706;28;20288;-59
2022/09/13 12:37:55;;;;;;;5.10;3.40;;;;;;;;;;4991295;28;20312;-57
2022/09/13 12:40:42;;;;;;;4.63;3.72;;;;;;;;;;4992641;28;20236;-58
2022/09/13 12:43:27;;;;;;;5.00;4.00;;;;;;;;;;4967564;28;20280;-58
2022/09/13 12:46:12;;;;;;;4.95;3.70;;;;;;;;;;4981712;28;20288;-57
2022/09/13 12:49:02;;;;;;;5.82;4.45;;;;;;;;;;4989154;28;20203;-58
2022/09/13 12:51:39;;;;;;;6.68;4.55;;;;;;;;;;4988437;28;20251;-59
2022/09/13 12:54:14;;;;;;;4.40;3.30;;;;;;;;;;4990442;28;20291;-59
2022/09/13 12:57:03;;;;;;;4.25;3.60;;;;;;;;;;4965793;28;20307;-57
2022/09/13 12:59:35;;;;;;;3.70;3.35;;;;;;;;;;4991898;28;20760;-57
2022/09/13 13:02:18;;;;;;;4.70;3.50;;;;;;;;;;4983276;28;20285;-58
2022/09/13 13:04:50;;;;;;;4.97;3.33;;;;;;;;;;4972807;28;20232;-57
2022/09/13 13:07:21;;;;;;;6.53;3.85;;;;;;;;;;4991488;28;20229;-58
2022/09/13 13:09:53;;;;;;;3.95;3.50;;;;;;;;;;4989437;28;20396;-58
2022/09/13 13:12:30;;;;;;;5.90;4.03;;;;;;;;;;4974519;28;20197;-58
2022/09/13 13:14:58;;;;;;;5.03;3.88;;;;;;;;;;4966305;28;20707;-57
2022/09/13 13:17:44;;;;;;;5.95;3.55;;;;;;;;;;4990777;28;20307;-57
2022/09/13 13:20:45;;;;;;;6.38;3.55;;;;;;;;;;4991579;28;20283;-55
2022/09/13 13:23:30;;;;;;;5.38;3.22;;;;;;;;;;4983862;28;20224;-59
2022/09/13 13:26:20;;;;;;;3.80;3.40;;;;;;;;;;4981644;28;20630;-56
2022/09/13 13:28:53;;;;;;;3.70;3.30;;;;;;;;;;4989712;28;20753;-57
2022/09/13 13:31:22;;;;;;;5.18;3.28;;;;;;;;;;4973855;28;20279;-56
2022/09/13 13:33:58;;;;;;;3.80;3.25;;;;;;;;;;4983245;28;20217;-56
2022/09/13 13:36:32;;;;;;;5.45;3.55;;;;;;;;;;4986178;28;20392;-57
2022/09/13 13:39:00;;;;;;;3.70;3.20;;;;;;;;;;4973852;28;20228;-57
2022/09/13 13:41:32;;;;;;;3.45;3.15;;;;;;;;;;4973922;28;20284;-57
2022/09/13 13:43:59;;;;;;;4.20;3.08;;;;;;;;;;4983884;28;20289;-56
2022/09/13 13:46:27;;;;;;;4.65;3.20;;;;;;;;;;4968829;28;20217;-55
2022/09/13 13:48:54;;;;;;;4.85;3.58;;;;;;;;;;4988509;28;20240;-58
2022/09/13 13:51:23;;;;;;;4.10;3.70;;;;;;;;;;4988296;28;20597;-58
2022/09/13 13:54:38;;;;;;;5.05;3.28;;;;;;;;;;4990692;28;20255;-57
2022/09/13 13:57:29;;;;;;;3.38;2.95;;;;;;;;;;4972080;28;20308;-58
2022/09/13 14:00:07;;;;;;;3.63;3.15;;;;;;;;;;4990175;28;20297;-58
2022/09/13 14:02:39;;;;;;;3.40;3.10;;;;;;;;;;4989791;28;20291;-57
2022/09/13 14:05:07;;;;;;;3.70;2.90;;;;;;;;;;4990730;28;20279;-57
2022/09/13 14:07:53;;;;;;;3.33;2.90;;;;;;;;;;4972757;28;20323;-57
2022/09/13 14:10:22;;;;;;;4.93;3.15;;;;;;;;;;4984640;28;20275;-56
2022/09/13 14:13:26;;;;;;;4.80;3.00;;;;;;;;;;4988924;28;20748;-58
2022/09/13 14:15:55;;;;;;;4.20;3.20;;;;;;;;;;4964374;28;20744;-58
2022/09/13 14:18:33;;;;;;;4.28;3.25;;;;;;;;;;4979991;28;20248;-54
2022/09/13 14:21:01;;;;;;;3.65;3.30;;;;;;;;;;4957159;28;20201;-55
2022/09/13 14:23:29;;;;;;;3.25;2.92;;;;;;;;;;4990539;28;20207;-57
2022/09/13 14:25:57;;;;;;;3.67;3.00;;;;;;;;;;4977686;28;20204;-57
2022/09/13 14:28:24;;;;;;;3.78;3.33;;;;;;;;;;4972865;28;20256;-57
2022/09/13 14:30:54;;;;;;;3.58;3.05;;;;;;;;;;4982024;28;20288;-58
2022/09/13 14:33:25;;;;;;;3.63;2.97;;;;;;;;;;4972519;28;20283;-58
2022/09/13 14:36:04;;;;;;;3.70;2.97;;;;;;;;;;4989516;28;20236;-58
2022/09/13 14:38:34;;;;;;;3.50;3.00;;;;;;;;;;4989970;28;20283;-57
2022/09/13 14:41:21;;;;;;;3.88;3.25;;;;;;;;;;4989407;28;20196;-57
2022/09/13 14:43:48;;;;;;;3.40;3.10;;;;;;;;;;4989476;28;20205;-56
2022/09/13 14:46:27;;;;;;;4.05;3.05;;;;;;;;;;4984495;28;20193;-56
2022/09/13 14:48:57;;;;;;;3.53;3.03;;;;;;;;;;4963587;28;20228;-54
2022/09/13 14:51:31;;;;;;;3.30;3.00;;;;;;;;;;4971760;28;20232;-58
2022/09/13 14:54:04;;;;;;;3.40;3.10;;;;;;;;;;4941025;28;20243;-58
2022/09/13 14:56:41;;;;;;;3.35;3.00;;;;;;;;;;4948690;28;20658;-56
2022/09/13 14:59:25;;;;;;;3.88;3.25;;;;;;;;;;4977278;28;20292;-56
2022/09/13 15:01:51;;;;;;;3.20;2.90;;;;;;;;;;4971480;28;20325;-58
2022/09/13 15:04:18;;;;;;;3.13;2.83;;;;;;;;;;4987604;28;20284;-56
2022/09/13 15:06:45;;;;;;;5.53;3.20;;;;;;;;;;4988229;28;20227;-57
2022/09/13 15:09:11;;;;;;;3.25;2.83;;;;;;;;;;4989290;28;20651;-58
2022/09/13 15:11:41;;;;;;;4.57;3.45;;;;;;;;;;4988666;28;20324;-57
2022/09/13 15:14:30;;;;;;;3.60;3.00;;;;;;;;;;4969268;28;20204;-57
2022/09/13 15:17:07;;;;;;;4.10;2.92;;;;;;;;;;4970233;28;20445;-57
2022/09/13 15:19:51;;;;;;;4.75;2.75;;;;;;;;;;4985114;28;20237;-58